Time;durP1;ratioP1;P1;durP2;ratioP2;P2;SDS_P1;SDS_P2;PMS_P1;PMS_P2;Temp;Humidity;BMP_temperature;BMP_pressure;BME280_temperature;BME280_humidity;BME280_pressure;Samples;Min_cycle;Max_cycle;Signal;HPM_P1;HPM_P2
2024/04/03 00:03:02;;;;;;;4.28;0.90;;;;;;;;;;6181374;23;20561;-90
2024/04/03 00:06:10;;;;;;;2.57;0.90;;;;;;;;;;6180041;23;20176;-91
2024/04/03 00:09:15;;;;;;;4.07;1.23;;;;;;;;;;6180484;23;20160;-88
2024/04/03 00:12:20;;;;;;;2.53;1.20;;;;;;;;;;6181400;23;20172;-90
2024/04/03 00:15:25;;;;;;;3.38;1.40;;;;;;;;;;6182403;23;20164;-91
2024/04/03 00:18:31;;;;;;;3.13;1.20;;;;;;;;;;6199768;23;20231;-91
2024/04/03 00:21:35;;;;;;;2.78;1.27;;;;;;;;;;6210635;23;20224;-89
2024/04/03 00:24:46;;;;;;;2.17;1.20;;;;;;;;;;6210327;23;20183;-89
2024/04/03 00:27:52;;;;;;;2.35;1.10;;;;;;;;;;6211031;23;20171;-91
2024/04/03 00:30:57;;;;;;;4.57;1.20;;;;;;;;;;6211479;23;20572;-90
2024/04/03 00:34:02;;;;;;;7.67;1.30;;;;;;;;;;6211412;23;20162;-88
2024/04/03 00:37:09;;;;;;;3.63;1.20;;;;;;;;;;6210654;23;20171;-89
2024/04/03 00:40:15;;;;;;;4.10;1.23;;;;;;;;;;6208757;23;20218;-90
2024/04/03 00:43:20;;;;;;;6.97;1.07;;;;;;;;;;6209246;23;20672;-89
2024/04/03 00:46:26;;;;;;;1.77;1.03;;;;;;;;;;6208131;23;20238;-90
2024/04/03 00:49:30;;;;;;;3.27;1.17;;;;;;;;;;6208380;23;20211;-89
2024/04/03 00:52:35;;;;;;;2.33;1.10;;;;;;;;;;6207505;23;20231;-90
2024/04/03 00:55:41;;;;;;;2.10;1.17;;;;;;;;;;6226695;23;20246;-91
2024/04/03 00:58:46;;;;;;;3.87;1.40;;;;;;;;;;6206450;23;20167;-89
2024/04/03 01:01:52;;;;;;;6.90;1.50;;;;;;;;;;6210734;23;20195;-90
2024/04/03 01:04:57;;;;;;;5.13;1.70;;;;;;;;;;6215279;23;20151;-90
2024/04/03 01:08:01;;;;;;;4.10;1.60;;;;;;;;;;6210735;23;20208;-89
2024/04/03 01:11:08;;;;;;;3.40;1.50;;;;;;;;;;6209495;23;20199;-90
2024/04/03 01:14:12;;;;;;;2.53;1.40;;;;;;;;;;6208679;23;20162;-89
2024/04/03 01:17:17;;;;;;;2.07;1.40;;;;;;;;;;6209434;23;20167;-89
2024/04/03 01:20:23;;;;;;;4.50;1.60;;;;;;;;;;6211044;23;20261;-91
2024/04/03 01:23:29;;;;;;;4.50;1.60;;;;;;;;;;6211373;23;20163;-90
2024/04/03 01:26:34;;;;;;;6.63;1.80;;;;;;;;;;6210369;23;20420;-90
2024/04/03 01:29:39;;;;;;;4.90;1.50;;;;;;;;;;6211384;23;20209;-91
2024/04/03 01:32:46;;;;;;;4.97;1.53;;;;;;;;;;6209269;23;20175;-90
2024/04/03 01:35:50;;;;;;;6.07;1.53;;;;;;;;;;6209416;23;20167;-89
2024/04/03 01:38:55;;;;;;;3.33;1.20;;;;;;;;;;6210182;23;20227;-90
2024/04/03 01:42:02;;;;;;;3.90;1.27;;;;;;;;;;6209794;23;20183;-90
2024/04/03 01:45:08;;;;;;;2.23;1.20;;;;;;;;;;6209641;23;20163;-89
2024/04/03 01:48:12;;;;;;;4.37;1.03;;;;;;;;;;6208788;23;20163;-91
2024/04/03 01:51:17;;;;;;;3.70;1.20;;;;;;;;;;6209032;23;20179;-89
2024/04/03 01:54:22;;;;;;;3.40;1.67;;;;;;;;;;6209123;23;20167;-89
2024/04/03 01:57:27;;;;;;;5.17;1.77;;;;;;;;;;6208128;23;20310;-90
2024/04/03 02:00:32;;;;;;;4.17;1.70;;;;;;;;;;6208811;23;20171;-88
2024/04/03 02:03:37;;;;;;;4.57;1.50;;;;;;;;;;6207249;23;20625;-91
2024/04/03 02:06:43;;;;;;;2.67;1.27;;;;;;;;;;6207050;23;20180;-88
2024/04/03 02:09:48;;;;;;;4.83;1.77;;;;;;;;;;6208509;23;20190;-90
2024/04/03 02:12:55;;;;;;;4.73;1.50;;;;;;;;;;6209250;23;20529;-90
2024/04/03 02:16:00;;;;;;;2.50;1.50;;;;;;;;;;6208569;23;20171;-89
2024/04/03 02:19:04;;;;;;;3.83;1.50;;;;;;;;;;6207837;23;20558;-90
2024/04/03 02:22:09;;;;;;;2.80;1.43;;;;;;;;;;6208354;23;20183;-89
2024/04/03 02:25:14;;;;;;;3.60;1.30;;;;;;;;;;6209633;23;20171;-89
2024/04/03 02:28:20;;;;;;;5.87;1.63;;;;;;;;;;6209229;23;20650;-89
2024/04/03 02:31:25;;;;;;;5.13;1.30;;;;;;;;;;6210019;23;20820;-91
2024/04/03 02:34:31;;;;;;;2.57;1.27;;;;;;;;;;6208134;23;20275;-88
2024/04/03 02:37:35;;;;;;;5.10;1.47;;;;;;;;;;6208172;23;20244;-89
2024/04/03 02:40:40;;;;;;;3.97;1.50;;;;;;;;;;6208847;23;20179;-89
2024/04/03 02:43:47;;;;;;;3.47;1.70;;;;;;;;;;6208445;23;20226;-89
2024/04/03 02:46:51;;;;;;;3.97;1.50;;;;;;;;;;6209852;23;20170;-90
2024/04/03 02:49:56;;;;;;;3.63;1.50;;;;;;;;;;6207309;23;20669;-89
2024/04/03 02:53:00;;;;;;;2.00;1.30;;;;;;;;;;6207995;23;20498;-88
2024/04/03 02:56:06;;;;;;;3.57;1.47;;;;;;;;;;6209113;23;20266;-90
2024/04/03 02:59:12;;;;;;;9.17;1.47;;;;;;;;;;6208985;23;20163;-90
2024/04/03 03:02:17;;;;;;;4.93;1.57;;;;;;;;;;6209833;23;20167;-90
2024/04/03 03:05:21;;;;;;;4.23;1.67;;;;;;;;;;6207949;23;20228;-89
2024/04/03 03:08:28;;;;;;;4.33;2.00;;;;;;;;;;6208940;23;20228;-88
2024/04/03 03:11:32;;;;;;;3.93;2.00;;;;;;;;;;6208008;23;20241;-88
2024/04/03 03:14:38;;;;;;;3.17;1.60;;;;;;;;;;6208733;23;20182;-90
2024/04/03 03:17:43;;;;;;;4.10;1.67;;;;;;;;;;6210188;23;20615;-89
2024/04/03 03:20:49;;;;;;;4.57;1.80;;;;;;;;;;6210881;23;20172;-89
2024/04/03 03:23:54;;;;;;;4.73;1.80;;;;;;;;;;6209445;23;20206;-89
2024/04/03 03:26:58;;;;;;;4.53;1.90;;;;;;;;;;6209290;23;20246;-91
2024/04/03 03:30:04;;;;;;;6.70;2.20;;;;;;;;;;6208808;23;20525;-89
2024/04/03 03:33:10;;;;;;;5.80;2.30;;;;;;;;;;6209484;23;20174;-90
2024/04/03 03:36:15;;;;;;;7.53;1.97;;;;;;;;;;6208943;23;20199;-89
2024/04/03 03:39:20;;;;;;;10.17;2.67;;;;;;;;;;6209037;23;20162;-90
2024/04/03 03:42:25;;;;;;;5.63;2.00;;;;;;;;;;6209451;23;20179;-90
2024/04/03 03:45:32;;;;;;;5.47;2.37;;;;;;;;;;6208400;23;20188;-91
2024/04/03 03:55:22;;;;;;;4.63;2.17;;;;;;;;;;6208709;23;20167;-89
2024/04/03 03:58:27;;;;;;;3.63;1.67;;;;;;;;;;6208064;23;20168;-89
2024/04/03 04:01:33;;;;;;;7.63;1.60;;;;;;;;;;6207441;23;20166;-88
2024/04/03 04:04:41;;;;;;;4.10;1.80;;;;;;;;;;6209612;23;20159;-86
2024/04/03 04:07:46;;;;;;;4.10;1.87;;;;;;;;;;6209000;23;20198;-88
2024/04/03 04:10:53;;;;;;;6.93;1.80;;;;;;;;;;6207847;23;20199;-90
2024/04/03 04:13:58;;;;;;;3.87;1.70;;;;;;;;;;6207153;23;20217;-91
2024/04/03 04:17:05;;;;;;;3.17;1.70;;;;;;;;;;6207821;23;20151;-88
2024/04/03 04:20:13;;;;;;;4.80;1.83;;;;;;;;;;6207859;23;20159;-90
2024/04/03 04:23:18;;;;;;;5.20;1.83;;;;;;;;;;6208957;23;20187;-90
2024/04/03 04:26:24;;;;;;;6.27;2.10;;;;;;;;;;6208862;23;20209;-90
2024/04/03 04:29:28;;;;;;;6.90;1.90;;;;;;;;;;6207623;23;20246;-89
2024/04/03 04:32:34;;;;;;;5.47;2.30;;;;;;;;;;6207738;23;20155;-89
2024/04/03 04:35:40;;;;;;;3.63;2.13;;;;;;;;;;6210556;23;20178;-89
2024/04/03 04:38:46;;;;;;;5.00;2.27;;;;;;;;;;6207074;23;20163;-89
2024/04/03 04:41:52;;;;;;;7.10;2.63;;;;;;;;;;6210029;23;20191;-92
2024/04/03 04:44:59;;;;;;;6.93;2.27;;;;;;;;;;6207885;23;20163;-91
2024/04/03 04:48:09;;;;;;;5.07;2.57;;;;;;;;;;6209157;23;20243;-90
2024/04/03 04:51:19;;;;;;;7.63;2.27;;;;;;;;;;6206877;23;20198;-89
2024/04/03 04:54:25;;;;;;;4.07;1.90;;;;;;;;;;6209448;23;20172;-89
2024/04/03 04:57:31;;;;;;;7.67;2.13;;;;;;;;;;6206044;23;20178;-88
2024/04/03 05:00:36;;;;;;;6.43;2.20;;;;;;;;;;6209624;23;20170;-90
2024/04/03 05:03:42;;;;;;;4.10;1.90;;;;;;;;;;6209197;23;20194;-86
2024/04/03 05:06:47;;;;;;;5.27;2.27;;;;;;;;;;6210085;23;20166;-89
2024/04/03 05:09:55;;;;;;;4.87;1.80;;;;;;;;;;6209519;23;20171;-90
2024/04/03 05:13:04;;;;;;;4.87;2.30;;;;;;;;;;6209210;23;20163;-88
2024/04/03 05:16:11;;;;;;;3.30;1.87;;;;;;;;;;6208474;23;20167;-90
2024/04/03 05:19:19;;;;;;;5.30;1.90;;;;;;;;;;6205540;23;20238;-91
2024/04/03 05:22:30;;;;;;;4.30;2.00;;;;;;;;;;6208121;23;20167;-91
2024/04/03 05:25:34;;;;;;;5.90;2.00;;;;;;;;;;6211074;23;20163;-91
2024/04/03 05:28:42;;;;;;;5.63;2.40;;;;;;;;;;6210051;23;20151;-89
2024/04/03 05:31:50;;;;;;;5.27;1.90;;;;;;;;;;6215003;23;20194;-90
2024/04/03 05:34:57;;;;;;;5.20;1.70;;;;;;;;;;6213621;23;20175;-92
2024/04/03 05:38:05;;;;;;;5.23;1.70;;;;;;;;;;6210731;23;20168;-90
2024/04/03 05:41:09;;;;;;;5.83;1.77;;;;;;;;;;6209218;23;20296;-89
2024/04/03 05:44:15;;;;;;;7.33;2.30;;;;;;;;;;6211730;23;20182;-89
2024/04/03 05:47:21;;;;;;;13.63;2.87;;;;;;;;;;6209464;23;20163;-91
2024/04/03 05:50:30;;;;;;;12.47;2.10;;;;;;;;;;6208838;23;20175;-91
2024/04/03 05:53:36;;;;;;;7.35;1.80;;;;;;;;;;6210162;23;20264;-92
2024/04/03 05:56:42;;;;;;;3.55;1.80;;;;;;;;;;6211218;23;20156;-90
2024/04/03 05:59:48;;;;;;;3.97;1.73;;;;;;;;;;6211153;23;20167;-90
2024/04/03 06:02:53;;;;;;;4.38;1.80;;;;;;;;;;6210279;23;20195;-90
2024/04/03 06:06:00;;;;;;;4.40;1.85;;;;;;;;;;6208971;23;20241;-92
2024/04/03 06:09:05;;;;;;;3.85;2.10;;;;;;;;;;6207129;23;20162;-91
2024/04/03 06:12:09;;;;;;;7.47;2.38;;;;;;;;;;6207036;23;20194;-90
2024/04/03 06:15:15;;;;;;;4.03;1.80;;;;;;;;;;6210790;23;20236;-92
2024/04/03 06:18:20;;;;;;;3.33;1.83;;;;;;;;;;6210059;23;20265;-91
2024/04/03 06:21:26;;;;;;;6.68;1.70;;;;;;;;;;6209080;23;20731;-91
2024/04/03 06:24:31;;;;;;;5.47;1.60;;;;;;;;;;6209077;23;20168;-91
2024/04/03 06:27:35;;;;;;;7.72;2.28;;;;;;;;;;6209003;23;20231;-92
2024/04/03 06:30:40;;;;;;;3.35;1.80;;;;;;;;;;6211781;23;20206;-90
2024/04/03 06:33:45;;;;;;;5.65;1.70;;;;;;;;;;6211316;23;20171;-89
2024/04/03 06:40:14;;;;;;;4.25;1.58;;;;;;;;;;6228515;23;20174;-91
2024/04/03 06:43:19;;;;;;;4.05;1.77;;;;;;;;;;6207804;23;20219;-92
2024/04/03 06:46:23;;;;;;;6.60;1.55;;;;;;;;;;6209999;23;20215;-90
2024/04/03 06:49:29;;;;;;;8.90;1.75;;;;;;;;;;6210421;23;20526;-89
2024/04/03 06:52:35;;;;;;;5.68;2.05;;;;;;;;;;6209225;23;20191;-90
2024/04/03 06:55:40;;;;;;;3.28;1.70;;;;;;;;;;6212242;23;20499;-91
2024/04/03 06:58:45;;;;;;;4.32;1.88;;;;;;;;;;6210883;23;20163;-91
2024/04/03 07:01:49;;;;;;;11.07;2.08;;;;;;;;;;6209659;23;20171;-92
2024/04/03 07:04:55;;;;;;;6.18;1.83;;;;;;;;;;6209441;23;20170;-91
2024/04/03 07:08:00;;;;;;;7.65;3.50;;;;;;;;;;6210729;23;20170;-91
2024/04/03 07:11:06;;;;;;;6.95;1.83;;;;;;;;;;6207278;23;20187;-90
2024/04/03 07:14:12;;;;;;;8.73;2.08;;;;;;;;;;6209378;23;20167;-93
2024/04/03 07:17:17;;;;;;;3.65;1.90;;;;;;;;;;6206908;23;20167;-90
2024/04/03 07:20:24;;;;;;;10.32;1.90;;;;;;;;;;6209897;23;20167;-91
2024/04/03 07:23:33;;;;;;;4.57;1.80;;;;;;;;;;6206826;23;20159;-90
2024/04/03 07:26:37;;;;;;;4.65;2.03;;;;;;;;;;6206892;23;20615;-91
2024/04/03 07:29:43;;;;;;;5.78;1.52;;;;;;;;;;6207372;23;20210;-92
2024/04/03 07:32:48;;;;;;;5.45;1.75;;;;;;;;;;6208021;23;20199;-91
2024/04/03 07:35:53;;;;;;;6.50;2.60;;;;;;;;;;6208040;23;20167;-90
2024/04/03 07:39:00;;;;;;;6.80;2.13;;;;;;;;;;6208558;23;20151;-92
2024/04/03 07:42:08;;;;;;;4.72;2.05;;;;;;;;;;6208447;23;20182;-91
2024/04/03 07:45:12;;;;;;;8.65;2.20;;;;;;;;;;6209473;23;20163;-91
2024/04/03 07:48:20;;;;;;;4.18;1.80;;;;;;;;;;6208657;23;20213;-91
2024/04/03 07:51:25;;;;;;;4.25;2.00;;;;;;;;;;6208142;23;20319;-91
2024/04/03 07:54:31;;;;;;;6.53;2.20;;;;;;;;;;6209037;23;20186;-91
2024/04/03 07:57:36;;;;;;;3.05;1.60;;;;;;;;;;6206920;23;20171;-91
2024/04/03 08:00:41;;;;;;;3.42;1.50;;;;;;;;;;6208849;23;20662;-92
2024/04/03 08:03:46;;;;;;;5.45;1.70;;;;;;;;;;6208577;23;20500;-91
2024/04/03 08:06:51;;;;;;;5.72;2.45;;;;;;;;;;6212847;23;20198;-92
2024/04/03 08:09:57;;;;;;;8.88;5.25;;;;;;;;;;6209579;23;20190;-93
2024/04/03 08:13:01;;;;;;;8.55;3.72;;;;;;;;;;6206056;23;20194;-92
2024/04/03 08:16:08;;;;;;;2.20;1.50;;;;;;;;;;6206146;23;20195;-92
2024/04/03 08:19:12;;;;;;;3.15;1.65;;;;;;;;;;6206480;23;20195;-91
2024/04/03 08:22:17;;;;;;;4.28;1.55;;;;;;;;;;6206451;23;20187;-91
2024/04/03 08:25:22;;;;;;;4.53;1.67;;;;;;;;;;6227645;23;20167;-92
2024/04/03 08:28:28;;;;;;;3.92;1.75;;;;;;;;;;6208861;23;20206;-92
2024/04/03 08:31:32;;;;;;;5.05;2.05;;;;;;;;;;6210499;23;20210;-92
2024/04/03 08:34:37;;;;;;;5.80;1.75;;;;;;;;;;6209269;23;20171;-92
2024/04/03 08:37:41;;;;;;;3.55;1.73;;;;;;;;;;6216137;23;20223;-92
2024/04/03 08:40:54;;;;;;;5.60;2.42;;;;;;;;;;6210208;23;20334;-92
2024/04/03 08:44:00;;;;;;;4.30;1.75;;;;;;;;;;6228864;23;20167;-92
2024/04/03 08:47:05;;;;;;;2.75;1.80;;;;;;;;;;6209730;23;20187;-91
2024/04/03 08:50:10;;;;;;;3.03;1.50;;;;;;;;;;6206668;23;20195;-91
2024/04/03 08:53:17;;;;;;;4.38;1.63;;;;;;;;;;6206723;23;20167;-91
2024/04/03 08:56:25;;;;;;;4.88;1.65;;;;;;;;;;6210392;23;20167;-93
2024/04/03 08:59:32;;;;;;;4.25;1.80;;;;;;;;;;6207320;23;20167;-91
2024/04/03 09:02:37;;;;;;;4.65;1.85;;;;;;;;;;6207202;23;20175;-92
2024/04/03 09:05:42;;;;;;;2.25;1.50;;;;;;;;;;6207267;23;20175;-91
2024/04/03 09:08:47;;;;;;;3.25;1.50;;;;;;;;;;6207081;23;20242;-91
2024/04/03 09:12:02;;;;;;;3.17;1.58;;;;;;;;;;6205691;23;20260;-91
2024/04/03 09:15:08;;;;;;;5.50;1.23;;;;;;;;;;6215952;23;20269;-90
2024/04/03 09:18:15;;;;;;;4.13;1.70;;;;;;;;;;6208367;23;20290;-90
2024/04/03 09:21:20;;;;;;;4.82;1.33;;;;;;;;;;6208833;23;20170;-91
2024/04/03 09:24:24;;;;;;;10.32;1.65;;;;;;;;;;6208264;23;20166;-92
2024/04/03 09:27:29;;;;;;;5.05;1.50;;;;;;;;;;6205460;23;20210;-90
2024/04/03 09:30:36;;;;;;;6.55;1.70;;;;;;;;;;6207324;23;20187;-92
2024/04/03 09:33:44;;;;;;;7.78;1.55;;;;;;;;;;6208323;23;20179;-91
2024/04/03 09:36:48;;;;;;;5.95;1.77;;;;;;;;;;6210703;23;20171;-92
2024/04/03 09:39:53;;;;;;;6.95;1.60;;;;;;;;;;6209946;23;20167;-93
2024/04/03 09:43:03;;;;;;;2.53;1.55;;;;;;;;;;6212125;23;20233;-92
2024/04/03 09:46:09;;;;;;;4.63;1.48;;;;;;;;;;6209170;23;20191;-92
2024/04/03 09:49:14;;;;;;;5.85;1.50;;;;;;;;;;6210170;23;20170;-91
2024/04/03 09:52:19;;;;;;;3.10;1.40;;;;;;;;;;6210460;23;20199;-93
2024/04/03 09:55:26;;;;;;;4.95;1.20;;;;;;;;;;6210278;23;20171;-92
2024/04/03 09:58:37;;;;;;;6.18;1.35;;;;;;;;;;6209099;23;20191;-92
2024/04/03 10:01:41;;;;;;;3.70;1.30;;;;;;;;;;6210778;23;20563;-92
2024/04/03 10:04:50;;;;;;;6.95;1.60;;;;;;;;;;6210000;23;20675;-91
2024/04/03 10:08:00;;;;;;;5.35;1.50;;;;;;;;;;6208834;23;20622;-92
2024/04/03 10:11:06;;;;;;;3.95;1.33;;;;;;;;;;6209766;23;20212;-91
2024/04/03 10:14:18;;;;;;;5.53;1.75;;;;;;;;;;6208578;23;20484;-92
2024/04/03 10:17:23;;;;;;;4.13;1.60;;;;;;;;;;6208622;23;20147;-92
2024/04/03 10:20:30;;;;;;;2.88;1.15;;;;;;;;;;6208060;23;20501;-92
2024/04/03 10:23:41;;;;;;;4.88;1.23;;;;;;;;;;6207868;23;20224;-91
2024/04/03 10:26:46;;;;;;;5.63;1.75;;;;;;;;;;6208195;23;20199;-92
2024/04/03 10:30:02;;;;;;;3.83;1.30;;;;;;;;;;6211173;23;20199;-92
2024/04/03 10:33:06;;;;;;;1.95;1.15;;;;;;;;;;6208806;23;20198;-93
2024/04/03 10:36:11;;;;;;;3.00;1.15;;;;;;;;;;6210968;23;20213;-90
2024/04/03 10:39:19;;;;;;;3.95;1.10;;;;;;;;;;6208484;23;20618;-91
2024/04/03 10:42:27;;;;;;;4.82;1.30;;;;;;;;;;6204895;23;20171;-91
2024/04/03 10:45:34;;;;;;;3.25;1.10;;;;;;;;;;6208134;23;20167;-92
2024/04/03 10:48:40;;;;;;;7.72;1.60;;;;;;;;;;6207780;23;20209;-92
2024/04/03 10:51:45;;;;;;;7.25;1.20;;;;;;;;;;6207769;23;20190;-93
2024/04/03 10:54:49;;;;;;;6.00;1.02;;;;;;;;;;6209836;23;20258;-92
2024/04/03 10:57:57;;;;;;;2.65;1.27;;;;;;;;;;6206524;23;20171;-92
2024/04/03 11:01:05;;;;;;;2.30;1.00;;;;;;;;;;6208100;23;20240;-92
2024/04/03 11:04:11;;;;;;;4.47;1.02;;;;;;;;;;6210089;23;20167;-92
2024/04/03 11:07:16;;;;;;;4.63;0.90;;;;;;;;;;6208305;23;20622;-93
2024/04/03 11:10:21;;;;;;;2.78;1.02;;;;;;;;;;6208035;23;20167;-93
2024/04/03 11:13:29;;;;;;;1.88;0.80;;;;;;;;;;6206521;23;20179;-92
2024/04/03 11:16:35;;;;;;;5.90;1.10;;;;;;;;;;6223987;23;20170;-93
2024/04/03 11:19:42;;;;;;;5.85;1.30;;;;;;;;;;6207716;23;20198;-93
2024/04/03 11:22:49;;;;;;;2.60;1.05;;;;;;;;;;6210178;23;20174;-93
2024/04/03 11:25:53;;;;;;;2.05;0.95;;;;;;;;;;6209257;23;20167;-94
2024/04/03 11:28:59;;;;;;;2.72;0.95;;;;;;;;;;6210410;23;20608;-93
2024/04/03 11:32:06;;;;;;;1.42;0.70;;;;;;;;;;6208477;23;20194;-95
2024/04/03 11:35:10;;;;;;;2.70;0.90;;;;;;;;;;6209350;23;20147;-94
2024/04/03 11:38:15;;;;;;;3.88;1.02;;;;;;;;;;6229927;23;20226;-96
2024/04/03 11:41:19;;;;;;;5.00;1.10;;;;;;;;;;6212493;23;20244;-93
2024/04/03 11:44:24;;;;;;;3.28;0.90;;;;;;;;;;6208801;23;20167;-93
2024/04/03 11:47:31;;;;;;;2.05;1.00;;;;;;;;;;6209099;23;20163;-93
2024/04/03 11:50:35;;;;;;;2.60;0.80;;;;;;;;;;6210507;23;20215;-94
2024/04/03 11:53:41;;;;;;;2.00;0.90;;;;;;;;;;6211259;23;20239;-93
2024/04/03 11:56:45;;;;;;;2.30;1.10;;;;;;;;;;6211287;23;20199;-94
2024/04/03 11:59:51;;;;;;;2.28;0.80;;;;;;;;;;6211765;23;20606;-94
2024/04/03 12:02:57;;;;;;;5.38;0.88;;;;;;;;;;6210544;23;20174;-93
2024/04/03 12:06:08;;;;;;;2.47;0.80;;;;;;;;;;6214100;23;20167;-93
2024/04/03 12:09:17;;;;;;;1.45;0.93;;;;;;;;;;6193979;23;20167;-92
2024/04/03 12:12:23;;;;;;;5.07;1.70;;;;;;;;;;6209962;23;20195;-93
2024/04/03 12:15:28;;;;;;;4.35;1.23;;;;;;;;;;6211676;23;20175;-93
2024/04/03 12:18:37;;;;;;;3.13;1.00;;;;;;;;;;6211638;23;20194;-92
2024/04/03 12:21:42;;;;;;;3.72;0.90;;;;;;;;;;6212853;23;20166;-93
2024/04/03 12:24:47;;;;;;;2.80;0.98;;;;;;;;;;6210208;23;20167;-93
2024/04/03 12:27:55;;;;;;;3.17;0.80;;;;;;;;;;6213087;23;20192;-92
2024/04/03 12:31:01;;;;;;;2.50;1.10;;;;;;;;;;6227792;23;20211;-93
2024/04/03 12:34:11;;;;;;;3.90;0.95;;;;;;;;;;6211685;23;20168;-94
2024/04/03 12:37:17;;;;;;;4.45;1.40;;;;;;;;;;6211490;23;20171;-93
2024/04/03 12:40:23;;;;;;;3.83;0.77;;;;;;;;;;6211091;23;20151;-92
2024/04/03 12:43:27;;;;;;;1.92;0.85;;;;;;;;;;6212849;23;20218;-93
2024/04/03 12:46:33;;;;;;;3.67;1.20;;;;;;;;;;6227778;23;20186;-91
2024/04/03 12:53:05;;;;;;;5.97;1.20;;;;;;;;;;6214085;23;20206;-93
2024/04/03 12:56:09;;;;;;;5.55;1.00;;;;;;;;;;6211375;23;20171;-93
2024/04/03 12:59:14;;;;;;;6.15;1.10;;;;;;;;;;6195338;23;20167;-93
2024/04/03 13:02:20;;;;;;;4.35;1.00;;;;;;;;;;6212575;23;20718;-94
2024/04/03 13:05:28;;;;;;;2.72;0.90;;;;;;;;;;6210938;23;20198;-92
2024/04/03 13:08:35;;;;;;;3.42;0.90;;;;;;;;;;6211959;23;20166;-93
2024/04/03 13:11:44;;;;;;;2.42;0.80;;;;;;;;;;6213849;23;20290;-94
2024/04/03 13:14:50;;;;;;;2.45;0.85;;;;;;;;;;6211121;23;20167;-93
2024/04/03 13:17:56;;;;;;;3.25;0.80;;;;;;;;;;6211849;23;20240;-94
2024/04/03 13:21:02;;;;;;;0.77;0.70;;;;;;;;;;6210945;23;20198;-93
2024/04/03 13:24:09;;;;;;;3.95;0.90;;;;;;;;;;6211207;23;20207;-95
2024/04/03 13:27:14;;;;;;;1.23;0.60;;;;;;;;;;6212203;23;20214;-95
2024/04/03 13:30:23;;;;;;;2.60;0.70;;;;;;;;;;6213110;23;20171;-95
2024/04/03 13:33:30;;;;;;;5.00;0.75;;;;;;;;;;6212029;23;20195;-95
2024/04/03 13:36:36;;;;;;;4.72;1.15;;;;;;;;;;6211941;23;20151;-91
2024/04/03 13:39:40;;;;;;;3.17;0.85;;;;;;;;;;6210805;23;20500;-94
2024/04/03 13:42:50;;;;;;;2.75;0.90;;;;;;;;;;6210449;23;20623;-95
2024/04/03 13:45:56;;;;;;;1.98;0.80;;;;;;;;;;6210956;23;20166;-94
2024/04/03 13:49:05;;;;;;;1.83;0.88;;;;;;;;;;6212181;23;20164;-95
2024/04/03 13:52:16;;;;;;;1.48;0.70;;;;;;;;;;6212814;23;20234;-94
2024/04/03 13:55:20;;;;;;;2.83;0.90;;;;;;;;;;6213359;23;20171;-94
2024/04/03 13:58:27;;;;;;;1.05;0.68;;;;;;;;;;6214321;23;20232;-93
2024/04/03 14:01:31;;;;;;;6.90;0.75;;;;;;;;;;6213013;23;20170;-94
2024/04/03 14:04:37;;;;;;;5.78;1.00;;;;;;;;;;6214557;23;20202;-94
2024/04/03 14:07:45;;;;;;;3.30;0.80;;;;;;;;;;6213929;23;20163;-94
2024/04/03 14:10:51;;;;;;;1.70;0.63;;;;;;;;;;6212436;23;20172;-93
2024/04/03 14:13:56;;;;;;;2.85;0.70;;;;;;;;;;6212209;23;20190;-93
2024/04/03 14:17:01;;;;;;;4.93;1.70;;;;;;;;;;6212596;23;20155;-93
2024/04/03 14:20:09;;;;;;;8.00;0.75;;;;;;;;;;6214846;23;20187;-93
2024/04/03 14:23:17;;;;;;;4.50;1.98;;;;;;;;;;6215786;23;20239;-94
2024/04/03 14:26:21;;;;;;;1.48;0.90;;;;;;;;;;6219871;23;20195;-94
2024/04/03 14:29:26;;;;;;;3.10;0.82;;;;;;;;;;6215346;23;20171;-94
2024/04/03 14:32:31;;;;;;;1.92;0.70;;;;;;;;;;6216030;23;20228;-94
2024/04/03 14:35:37;;;;;;;3.63;0.80;;;;;;;;;;6213816;23;20186;-94
2024/04/03 14:38:46;;;;;;;4.63;0.90;;;;;;;;;;6212606;23;20243;-93
2024/04/03 14:41:51;;;;;;;1.05;0.80;;;;;;;;;;6213566;23;20175;-93
2024/04/03 14:44:56;;;;;;;3.72;1.20;;;;;;;;;;6214962;23;20167;-94
2024/04/03 14:48:03;;;;;;;3.95;0.80;;;;;;;;;;6214095;23;20155;-91
2024/04/03 14:51:08;;;;;;;1.80;0.73;;;;;;;;;;6214060;23;20167;-95
2024/04/03 14:54:14;;;;;;;1.52;0.80;;;;;;;;;;6215070;23;20198;-95
2024/04/03 14:57:20;;;;;;;1.83;0.63;;;;;;;;;;6232355;23;20186;-92
2024/04/03 15:00:24;;;;;;;2.65;0.80;;;;;;;;;;6215203;23;20169;-93
2024/04/03 15:03:30;;;;;;;2.72;1.00;;;;;;;;;;6214791;23;20194;-94
2024/04/03 15:06:34;;;;;;;8.55;1.38;;;;;;;;;;6213015;23;20170;-94
2024/04/03 15:09:41;;;;;;;3.72;0.70;;;;;;;;;;6213505;23;20175;-92
2024/04/03 15:12:47;;;;;;;1.30;0.60;;;;;;;;;;6215109;23;20223;-92
2024/04/03 15:15:52;;;;;;;1.55;0.80;;;;;;;;;;6214355;23;20162;-93
2024/04/03 15:18:57;;;;;;;1.40;0.60;;;;;;;;;;6216007;23;20256;-92
2024/04/03 15:22:03;;;;;;;2.42;0.75;;;;;;;;;;6214676;23;20239;-93
2024/04/03 15:25:11;;;;;;;3.55;0.98;;;;;;;;;;6214119;23;20263;-92
2024/04/03 15:28:15;;;;;;;2.05;0.80;;;;;;;;;;6212570;23;20262;-92
2024/04/03 15:31:21;;;;;;;4.43;0.73;;;;;;;;;;6213936;23;20155;-94
2024/04/03 15:34:28;;;;;;;3.28;0.63;;;;;;;;;;6213074;23;20639;-93
2024/04/03 15:37:35;;;;;;;4.78;1.70;;;;;;;;;;6217643;23;20206;-93
2024/04/03 15:40:54;;;;;;;3.28;0.90;;;;;;;;;;6213588;23;20277;-92
2024/04/03 15:43:59;;;;;;;4.80;1.13;;;;;;;;;;6230341;23;20203;-91
2024/04/03 15:47:10;;;;;;;3.90;1.00;;;;;;;;;;6211692;23;20147;-94
2024/04/03 15:50:16;;;;;;;4.97;0.80;;;;;;;;;;6212502;23;20171;-93
2024/04/03 15:53:25;;;;;;;4.05;0.93;;;;;;;;;;6196223;23;20191;-94
2024/04/03 15:56:47;;;;;;;3.22;0.93;;;;;;;;;;6210405;23;20172;-92
2024/04/03 15:59:57;;;;;;;6.30;1.95;;;;;;;;;;6213109;23;20155;-92
2024/04/03 16:03:04;;;;;;;9.82;3.63;;;;;;;;;;6231495;23;20218;-93
2024/04/03 16:06:10;;;;;;;2.22;1.20;;;;;;;;;;6214681;23;20241;-92
2024/04/03 16:09:27;;;;;;;1.98;1.08;;;;;;;;;;6211279;23;20463;-93
2024/04/03 16:12:32;;;;;;;4.95;1.17;;;;;;;;;;6211701;23;20179;-90
2024/04/03 16:15:39;;;;;;;2.30;0.90;;;;;;;;;;6212068;23;20163;-91
2024/04/03 16:18:44;;;;;;;2.85;1.23;;;;;;;;;;6211197;23;20198;-94
2024/04/03 16:21:54;;;;;;;3.03;0.93;;;;;;;;;;6211917;23;20214;-92
2024/04/03 16:25:04;;;;;;;15.20;5.40;;;;;;;;;;6227730;23;20167;-93
2024/04/03 16:28:08;;;;;;;1.70;1.08;;;;;;;;;;6209979;23;20167;-91
2024/04/03 16:31:17;;;;;;;1.58;1.05;;;;;;;;;;6213009;23;20186;-91
2024/04/03 16:34:22;;;;;;;2.58;1.10;;;;;;;;;;6212740;23;20194;-90
2024/04/03 16:37:28;;;;;;;3.90;1.20;;;;;;;;;;6214477;23;20152;-91
2024/04/03 16:40:32;;;;;;;2.17;1.20;;;;;;;;;;6216952;23;20217;-94
2024/04/03 16:43:40;;;;;;;2.40;1.30;;;;;;;;;;6212712;23;20167;-91
2024/04/03 16:46:50;;;;;;;2.85;1.15;;;;;;;;;;6218579;23;20211;-90
2024/04/03 19:04:26;;;;;;;2.78;1.23;;;;;;;;;;6143239;23;20211;-88
2024/04/03 19:07:32;;;;;;;2.35;1.38;;;;;;;;;;6200069;23;20176;-91
2024/04/03 19:10:41;;;;;;;5.47;1.67;;;;;;;;;;6199691;23;20163;-91
2024/04/03 19:13:51;;;;;;;2.70;1.35;;;;;;;;;;6200521;23;20199;-92
2024/04/03 19:17:03;;;;;;;4.68;1.30;;;;;;;;;;6204608;23;20175;-90
2024/04/03 19:20:15;;;;;;;9.93;3.50;;;;;;;;;;6197987;23;20211;-88
2024/04/03 19:23:19;;;;;;;6.20;2.08;;;;;;;;;;6181859;23;20171;-89
2024/04/03 19:26:25;;;;;;;4.70;1.77;;;;;;;;;;6182198;23;20237;-92
2024/04/03 19:29:30;;;;;;;4.28;1.65;;;;;;;;;;6199859;23;20287;-90
2024/04/03 19:32:38;;;;;;;2.13;1.17;;;;;;;;;;6183641;23;20163;-92
2024/04/03 19:35:46;;;;;;;4.22;1.25;;;;;;;;;;6199832;23;20172;-89
2024/04/03 19:38:54;;;;;;;3.55;1.50;;;;;;;;;;6182582;23;20216;-92
2024/04/03 19:41:58;;;;;;;2.63;1.20;;;;;;;;;;6181803;23;20164;-91
2024/04/03 19:45:06;;;;;;;7.25;1.40;;;;;;;;;;6182696;23;20350;-90
2024/04/03 19:48:13;;;;;;;2.53;1.10;;;;;;;;;;6183087;23;20167;-92
2024/04/03 19:51:19;;;;;;;5.05;1.98;;;;;;;;;;6198531;23;20176;-89
2024/04/03 19:54:25;;;;;;;4.53;2.50;;;;;;;;;;6199320;23;20192;-91
2024/04/03 19:57:30;;;;;;;3.50;1.60;;;;;;;;;;6198964;23;20164;-91
2024/04/03 20:00:35;;;;;;;4.50;1.80;;;;;;;;;;6185043;23;20249;-91
2024/04/03 20:03:39;;;;;;;2.08;1.23;;;;;;;;;;6202866;23;20501;-90
2024/04/03 20:06:46;;;;;;;2.90;1.40;;;;;;;;;;6200646;23;20191;-91
2024/04/03 20:09:50;;;;;;;2.97;1.33;;;;;;;;;;6183771;23;20148;-89
2024/04/03 20:12:57;;;;;;;2.83;1.27;;;;;;;;;;6182719;23;20280;-92
2024/04/03 20:16:02;;;;;;;4.88;2.10;;;;;;;;;;6185028;23;20196;-91
2024/04/03 20:19:06;;;;;;;2.63;1.08;;;;;;;;;;6183169;23;20168;-90
2024/04/03 20:22:15;;;;;;;3.10;1.48;;;;;;;;;;6182566;23;20187;-91
2024/04/03 20:25:20;;;;;;;4.00;1.23;;;;;;;;;;6200274;23;20163;-92
2024/04/03 20:28:26;;;;;;;2.28;1.23;;;;;;;;;;6184294;23;20223;-91
2024/04/03 20:31:30;;;;;;;3.97;1.10;;;;;;;;;;6202352;23;20453;-91
2024/04/03 20:34:37;;;;;;;1.67;1.10;;;;;;;;;;6185281;23;20216;-93
2024/04/03 20:37:47;;;;;;;3.35;1.02;;;;;;;;;;6182906;23;20171;-91
2024/04/03 20:40:52;;;;;;;1.73;1.05;;;;;;;;;;6181595;23;20223;-91
2024/04/03 20:44:00;;;;;;;1.70;1.20;;;;;;;;;;6182494;23;20203;-91
2024/04/03 20:47:05;;;;;;;3.03;1.40;;;;;;;;;;6198070;23;20651;-91
2024/04/03 20:50:11;;;;;;;2.40;1.25;;;;;;;;;;6184769;23;20168;-91
2024/04/03 20:53:18;;;;;;;3.40;1.45;;;;;;;;;;6185274;23;20179;-90
2024/04/03 20:56:25;;;;;;;3.60;1.33;;;;;;;;;;6202372;23;20168;-90
2024/04/03 20:59:35;;;;;;;2.47;1.40;;;;;;;;;;6185211;23;20207;-90
2024/04/03 21:02:41;;;;;;;3.53;1.77;;;;;;;;;;6201915;23;20206;-91
2024/04/03 21:05:46;;;;;;;6.15;1.65;;;;;;;;;;6202818;23;20222;-92